Time;durP1;ratioP1;P1;durP2;ratioP2;P2;SDS_P1;SDS_P2;PMS_P1;PMS_P2;Temp;Humidity;BMP_temperature;BMP_pressure;BME280_temperature;BME280_humidity;BME280_pressure;Samples;Min_cycle;Max_cycle;Signal;HPM_P1;HPM_P2
2021/12/18 00:02:03;;;;;;;28.90;10.47;;;3.20;99.90;;;;;;5059711;28;20196;-67
2021/12/18 00:04:28;;;;;;;18.27;8.73;;;3.20;99.90;;;;;;5051368;28;20683;-67
2021/12/18 00:06:55;;;;;;;22.93;10.60;;;3.20;99.90;;;;;;5046794;28;20417;-67
2021/12/18 00:09:21;;;;;;;22.07;10.30;;;3.10;99.90;;;;;;5051812;28;20259;-67
2021/12/18 00:11:48;;;;;;;19.37;9.20;;;3.10;99.90;;;;;;5047948;28;20416;-67
2021/12/18 00:14:15;;;;;;;15.90;8.23;;;3.00;99.90;;;;;;5047957;28;20917;-67
2021/12/18 00:16:40;;;;;;;25.17;8.93;;;3.00;99.90;;;;;;5046762;28;20420;-67
2021/12/18 00:19:06;;;;;;;17.13;8.67;;;3.00;99.90;;;;;;5030925;28;20444;-65
2021/12/18 00:21:36;;;;;;;15.70;8.93;;;2.90;99.90;;;;;;5047188;28;20194;-65
2021/12/18 00:24:03;;;;;;;19.80;9.10;;;2.90;99.90;;;;;;5051048;28;20321;-65
2021/12/18 00:26:29;;;;;;;16.70;9.00;;;2.90;99.90;;;;;;5050191;28;20760;-66
2021/12/18 00:28:54;;;;;;;19.17;8.70;;;2.90;99.90;;;;;;5049289;28;20431;-66
2021/12/18 00:31:20;;;;;;;21.50;8.67;;;2.90;99.90;;;;;;5050607;28;20177;-66
2021/12/18 00:33:46;;;;;;;18.47;9.47;;;2.90;99.90;;;;;;5053441;28;20185;-66
2021/12/18 00:36:11;;;;;;;24.50;9.77;;;2.90;99.90;;;;;;5046841;28;20653;-65
2021/12/18 00:38:39;;;;;;;18.90;8.83;;;2.80;99.90;;;;;;5053040;28;20624;-67
2021/12/18 00:43:34;;;;;;;20.10;10.50;;;2.80;99.90;;;;;;5051969;28;20810;-66
2021/12/18 00:46:00;;;;;;;19.67;9.73;;;2.80;99.90;;;;;;5053627;28;20182;-66
2021/12/18 00:48:25;;;;;;;18.00;8.63;;;2.80;99.90;;;;;;5056134;28;20415;-66
2021/12/18 00:50:52;;;;;;;19.90;9.37;;;2.80;99.90;;;;;;5057274;28;20493;-67
2021/12/18 00:53:18;;;;;;;19.33;9.07;;;2.80;99.90;;;;;;5061255;28;20184;-67
2021/12/18 00:55:44;;;;;;;19.97;10.00;;;2.70;99.90;;;;;;5057602;28;20420;-67
2021/12/18 00:58:10;;;;;;;20.10;10.13;;;2.70;99.90;;;;;;5062301;28;20240;-66
2021/12/18 01:00:38;;;;;;;18.50;8.67;;;2.70;99.90;;;;;;5050909;28;20727;-66
2021/12/18 01:03:04;;;;;;;20.10;10.23;;;2.60;99.90;;;;;;5050215;28;20412;-66
2021/12/18 01:05:32;;;;;;;18.10;9.90;;;2.60;99.90;;;;;;5050949;28;20481;-66
2021/12/18 01:07:59;;;;;;;26.33;10.33;;;2.60;99.90;;;;;;5050952;28;20486;-67
2021/12/18 01:13:00;;;;;;;19.83;10.20;;;2.50;99.90;;;;;;5051867;28;20842;-67
2021/12/18 01:15:34;;;;;;;22.87;10.50;;;2.50;99.90;;;;;;5051966;28;20423;-65
2021/12/18 01:23:30;;;;;;;22.33;10.73;;;2.50;99.90;;;;;;5052937;28;20434;-67
2021/12/18 01:25:56;;;;;;;23.27;10.57;;;2.50;99.90;;;;;;5054013;28;21177;-70
2021/12/18 01:28:23;;;;;;;24.73;11.20;;;2.50;99.90;;;;;;5053268;28;20465;-67
2021/12/18 01:30:49;;;;;;;21.17;9.97;;;2.50;99.90;;;;;;5054284;28;20424;-66
2021/12/18 01:33:15;;;;;;;23.57;11.20;;;2.50;99.90;;;;;;5049641;28;20514;-66
2021/12/18 01:35:42;;;;;;;23.00;10.40;;;2.40;99.90;;;;;;5053801;28;20448;-67
2021/12/18 01:38:09;;;;;;;32.70;13.83;;;2.40;99.90;;;;;;5054205;28;20186;-67
2021/12/18 01:40:35;;;;;;;21.93;9.80;;;2.40;99.90;;;;;;5054793;28;20903;-66
2021/12/18 01:44:00;;;;;;;25.50;10.40;;;2.40;99.90;;;;;;5057709;28;20432;-67
2021/12/18 01:46:35;;;;;;;21.33;11.10;;;2.50;99.90;;;;;;5050201;28;20221;-66
2021/12/18 01:52:00;;;;;;;27.10;11.00;;;2.50;99.90;;;;;;5051429;28;20410;-67
2021/12/18 01:54:26;;;;;;;20.23;10.60;;;2.50;99.90;;;;;;5050893;28;20416;-67
2021/12/18 01:56:52;;;;;;;26.50;11.43;;;2.50;99.90;;;;;;5049224;28;20411;-66
2021/12/18 01:59:32;;;;;;;21.33;11.37;;;2.50;99.90;;;;;;5049826;28;20243;-67
2021/12/18 02:01:58;;;;;;;25.60;11.30;;;2.40;99.90;;;;;;5047576;28;20276;-66
2021/12/18 02:04:24;;;;;;;24.03;11.87;;;2.40;99.90;;;;;;5050940;28;20464;-67
2021/12/18 02:06:49;;;;;;;21.40;9.73;;;2.30;99.90;;;;;;5050745;28;20186;-67
2021/12/18 02:09:16;;;;;;;21.23;10.33;;;2.30;99.90;;;;;;5051488;28;20209;-67
2021/12/18 02:11:41;;;;;;;23.63;11.33;;;2.30;99.90;;;;;;5052047;28;20182;-67
2021/12/18 02:14:33;;;;;;;21.87;10.70;;;2.30;99.90;;;;;;5052542;28;20421;-66
2021/12/18 02:22:15;;;;;;;22.70;10.80;;;2.40;99.90;;;;;;5056898;28;21320;-67
2021/12/18 02:24:41;;;;;;;25.80;9.27;;;2.40;99.90;;;;;;5053700;28;20463;-66
2021/12/18 02:27:07;;;;;;;31.00;12.33;;;2.30;99.90;;;;;;5053695;28;20426;-66
2021/12/18 02:29:36;;;;;;;21.30;11.30;;;2.30;99.90;;;;;;5054132;28;20420;-67
2021/12/18 02:32:03;;;;;;;26.70;10.30;;;2.30;99.90;;;;;;5054067;28;20181;-67
2021/12/18 02:34:31;;;;;;;24.77;9.83;;;2.30;99.90;;;;;;5054558;28;20424;-67
2021/12/18 02:37:05;;;;;;;17.80;9.50;;;2.30;99.90;;;;;;5043194;28;20412;-66
2021/12/18 02:42:32;;;;;;;27.30;12.50;;;2.30;99.90;;;;;;5016809;28;21119;-67
2021/12/18 02:44:58;;;;;;;22.03;9.00;;;2.30;99.90;;;;;;5054590;28;20464;-66
2021/12/18 02:47:23;;;;;;;29.13;13.90;;;2.40;99.90;;;;;;5048367;28;20438;-67
2021/12/18 02:49:51;;;;;;;30.87;13.87;;;2.40;99.90;;;;;;5048593;28;20471;-66
2021/12/18 02:52:19;;;;;;;28.33;12.10;;;2.40;99.90;;;;;;5048183;28;20170;-67
2021/12/18 02:54:45;;;;;;;27.07;12.10;;;2.40;99.90;;;;;;5050127;28;20948;-67
2021/12/18 02:57:11;;;;;;;22.57;11.00;;;2.40;99.90;;;;;;5049233;28;20503;-67
2021/12/18 02:59:45;;;;;;;23.03;11.33;;;2.40;99.90;;;;;;5051226;28;20760;-67
2021/12/18 03:02:12;;;;;;;29.23;11.80;;;2.40;99.90;;;;;;5048393;28;20419;-67
2021/12/18 03:04:39;;;;;;;27.47;12.87;;;2.40;99.90;;;;;;5050337;28;20470;-67
2021/12/18 03:07:08;;;;;;;24.30;10.70;;;2.40;99.90;;;;;;5048442;28;20424;-66
2021/12/18 03:25:39;;;;;;;27.73;12.90;;;2.20;99.90;;;;;;5054296;28;20481;-66
2021/12/18 03:28:07;;;;;;;22.97;10.60;;;2.30;99.90;;;;;;5048171;28;20896;-67
2021/12/18 03:30:34;;;;;;;28.27;12.10;;;2.20;99.90;;;;;;5049133;28;20433;-66
2021/12/18 03:33:00;;;;;;;23.83;11.27;;;2.20;99.90;;;;;;5047542;28;20428;-67
2021/12/18 03:35:25;;;;;;;28.60;12.37;;;2.10;99.90;;;;;;5047606;28;20416;-67
2021/12/18 03:37:51;;;;;;;20.80;11.20;;;2.10;99.90;;;;;;5047611;28;20420;-66
2021/12/18 03:40:21;;;;;;;26.17;11.70;;;2.10;99.90;;;;;;5049853;28;20185;-66
2021/12/18 03:42:47;;;;;;;25.60;11.30;;;2.00;99.90;;;;;;5048371;28;20205;-66
2021/12/18 03:45:14;;;;;;;45.60;14.30;;;1.90;99.90;;;;;;5050571;28;20827;-67
2021/12/18 03:47:40;;;;;;;25.60;11.57;;;2.00;99.90;;;;;;5048019;28;20416;-67
2021/12/18 03:50:06;;;;;;;40.23;11.67;;;2.00;99.90;;;;;;5052990;28;20535;-66
2021/12/18 03:52:32;;;;;;;34.00;12.70;;;2.00;99.90;;;;;;5047475;28;20586;-66
2021/12/18 03:54:59;;;;;;;20.60;9.50;;;2.00;99.90;;;;;;5050347;28;20513;-67
2021/12/18 03:57:25;;;;;;;28.43;11.13;;;2.00;99.90;;;;;;5051213;28;20424;-66
2021/12/18 03:59:51;;;;;;;27.40;11.10;;;1.90;99.90;;;;;;5053668;28;20458;-66
2021/12/18 04:02:17;;;;;;;24.03;10.03;;;1.80;99.90;;;;;;5052501;28;20489;-66
2021/12/18 04:04:43;;;;;;;23.03;10.80;;;1.80;99.90;;;;;;5047495;28;21102;-66
2021/12/18 04:07:09;;;;;;;29.80;12.93;;;1.80;99.90;;;;;;5048844;28;20456;-67
2021/12/18 04:09:35;;;;;;;22.17;11.20;;;1.90;99.90;;;;;;5053400;28;20177;-67
2021/12/18 04:12:02;;;;;;;33.30;11.90;;;1.90;99.90;;;;;;5053041;28;20192;-67
2021/12/18 04:14:27;;;;;;;35.37;12.50;;;1.90;99.90;;;;;;5049818;28;20424;-67
2021/12/18 04:16:53;;;;;;;26.40;12.50;;;2.00;99.90;;;;;;5047766;28;20412;-67
2021/12/18 04:19:19;;;;;;;22.57;11.33;;;1.90;99.90;;;;;;5055265;28;20855;-67
2021/12/18 04:21:46;;;;;;;22.73;10.00;;;1.90;99.90;;;;;;5054840;28;20661;-67
2021/12/18 04:24:12;;;;;;;33.57;13.03;;;1.90;99.90;;;;;;5055781;28;20474;-66
2021/12/18 04:26:37;;;;;;;32.43;13.53;;;1.90;99.90;;;;;;5057611;28;20427;-67
2021/12/18 04:29:08;;;;;;;22.90;11.53;;;1.90;99.90;;;;;;5055168;28;20430;-67
2021/12/18 04:31:35;;;;;;;24.83;12.03;;;1.80;99.90;;;;;;5058607;28;20182;-67
2021/12/18 04:34:01;;;;;;;26.33;11.83;;;1.80;99.90;;;;;;5054961;28;20466;-67
2021/12/18 04:36:27;;;;;;;20.67;9.70;;;1.80;99.90;;;;;;5052147;28;20452;-66
2021/12/18 04:38:52;;;;;;;26.93;12.57;;;1.80;99.90;;;;;;5055796;28;20432;-66
2021/12/18 04:41:24;;;;;;;27.97;12.63;;;1.80;99.90;;;;;;5057987;28;20200;-67
2021/12/18 04:43:51;;;;;;;31.47;11.13;;;1.80;99.90;;;;;;5051191;28;20190;-65
2021/12/18 04:46:17;;;;;;;24.10;11.13;;;1.80;99.90;;;;;;5052063;28;20470;-67
2021/12/18 04:48:42;;;;;;;31.40;13.60;;;1.70;99.90;;;;;;5052071;28;21071;-65
2021/12/18 04:51:08;;;;;;;35.33;13.67;;;1.80;99.90;;;;;;5054432;28;20178;-66
2021/12/18 04:53:34;;;;;;;28.53;13.30;;;1.90;99.90;;;;;;5051055;28;20544;-67
2021/12/18 04:55:59;;;;;;;30.93;11.47;;;1.70;99.90;;;;;;5054860;28;20188;-66
2021/12/18 04:58:25;;;;;;;23.40;11.30;;;1.60;99.90;;;;;;5053768;28;20193;-66
2021/12/18 05:00:51;;;;;;;28.23;10.50;;;1.60;99.90;;;;;;5055948;28;20193;-66
2021/12/18 05:03:18;;;;;;;20.40;10.67;;;1.60;99.90;;;;;;5050625;28;20189;-66
2021/12/18 05:05:43;;;;;;;30.90;11.27;;;1.60;99.90;;;;;;5053913;28;20771;-66
2021/12/18 05:08:09;;;;;;;25.93;11.83;;;1.60;99.90;;;;;;5050013;28;20428;-66
2021/12/18 05:10:35;;;;;;;21.53;9.73;;;1.60;99.90;;;;;;5055112;28;20253;-67
2021/12/18 05:13:01;;;;;;;27.27;11.47;;;1.40;99.90;;;;;;5055028;28;20182;-66
2021/12/18 05:15:27;;;;;;;23.60;11.50;;;1.50;99.90;;;;;;5057767;28;20196;-66
2021/12/18 05:17:52;;;;;;;27.90;9.03;;;1.50;99.90;;;;;;5051981;28;20436;-66
2021/12/18 05:20:18;;;;;;;22.90;10.17;;;1.40;99.90;;;;;;5047032;28;20284;-65
2021/12/18 05:22:44;;;;;;;26.70;11.53;;;1.40;99.90;;;;;;5053332;28;20177;-67
2021/12/18 05:25:10;;;;;;;18.60;9.97;;;1.30;99.90;;;;;;5052261;28;20220;-67
2021/12/18 05:27:36;;;;;;;34.70;11.47;;;1.30;99.90;;;;;;5053884;28;20213;-66
2021/12/18 05:30:07;;;;;;;24.60;10.73;;;1.40;99.90;;;;;;5050419;28;20189;-66
2021/12/18 05:32:33;;;;;;;27.93;10.87;;;1.40;99.90;;;;;;5049547;28;20424;-66
2021/12/18 05:34:59;;;;;;;23.73;11.60;;;1.30;99.90;;;;;;5050548;28;20427;-67
2021/12/18 05:39:50;;;;;;;28.17;10.30;;;1.30;99.90;;;;;;5052558;28;20427;-66
2021/12/18 05:42:16;;;;;;;28.23;9.13;;;1.10;99.90;;;;;;5051568;28;20194;-67
2021/12/18 05:44:43;;;;;;;22.77;10.43;;;1.10;99.90;;;;;;5051679;28;20209;-67
2021/12/18 05:47:09;;;;;;;38.53;12.23;;;1.10;99.90;;;;;;5051269;28;20475;-67
2021/12/18 05:49:34;;;;;;;33.80;10.50;;;1.10;99.90;;;;;;5054208;28;20457;-66
2021/12/18 05:52:00;;;;;;;31.70;12.20;;;1.20;99.90;;;;;;5052178;28;20408;-66
2021/12/18 05:54:26;;;;;;;24.63;10.33;;;1.20;99.90;;;;;;5055161;28;20197;-66
2021/12/18 05:56:52;;;;;;;22.67;10.03;;;1.10;99.90;;;;;;5049921;28;20198;-66
2021/12/18 05:59:17;;;;;;;27.10;12.67;;;1.00;99.90;;;;;;5055685;28;20209;-67
2021/12/18 06:01:43;;;;;;;23.00;10.23;;;1.10;99.90;;;;;;5053351;28;20256;-66
2021/12/18 06:04:09;;;;;;;29.87;11.30;;;1.10;99.90;;;;;;5049628;28;20202;-66
2021/12/18 06:06:35;;;;;;;29.77;11.17;;;1.20;99.90;;;;;;5054144;28;20190;-66
2021/12/18 06:09:00;;;;;;;23.60;11.20;;;1.20;99.90;;;;;;5049704;28;20239;-66
2021/12/18 06:11:28;;;;;;;33.10;11.23;;;1.10;99.90;;;;;;5055590;28;20182;-66
2021/12/18 06:13:54;;;;;;;31.00;9.80;;;1.10;99.90;;;;;;5059556;28;20204;-66
2021/12/18 06:16:21;;;;;;;30.37;11.77;;;1.10;99.90;;;;;;5057189;28;20416;-66
2021/12/18 06:18:49;;;;;;;22.90;8.93;;;1.10;99.90;;;;;;5052974;28;20510;-66
2021/12/18 06:21:15;;;;;;;21.27;10.23;;;1.00;99.90;;;;;;5051845;28;20462;-66
2021/12/18 06:23:49;;;;;;;24.13;10.17;;;1.10;99.90;;;;;;5049569;28;20412;-67
2021/12/18 06:26:16;;;;;;;28.67;9.53;;;1.10;99.90;;;;;;5049705;28;20480;-65
2021/12/18 06:28:42;;;;;;;25.90;10.80;;;1.10;99.90;;;;;;5049450;28;20736;-65
2021/12/18 06:31:08;;;;;;;26.20;10.23;;;1.00;99.90;;;;;;5050267;28;20730;-65
2021/12/18 06:33:34;;;;;;;33.73;11.90;;;0.80;99.90;;;;;;5052105;28;20423;-66
2021/12/18 06:36:00;;;;;;;26.30;9.60;;;0.70;99.90;;;;;;5050577;28;20276;-66
2021/12/18 06:38:25;;;;;;;31.37;11.90;;;0.80;99.90;;;;;;5052724;28;20380;-66
2021/12/18 06:40:52;;;;;;;22.73;9.90;;;0.80;99.90;;;;;;5049157;28;20447;-66
2021/12/18 06:43:18;;;;;;;26.07;11.33;;;0.70;99.90;;;;;;5050525;28;20192;-66
2021/12/18 06:45:44;;;;;;;28.07;11.17;;;0.80;99.90;;;;;;5048654;28;20474;-66
2021/12/18 06:48:09;;;;;;;24.27;10.50;;;0.80;99.90;;;;;;5051350;28;20424;-66
2021/12/18 06:50:36;;;;;;;28.97;10.60;;;0.90;99.90;;;;;;5052022;28;20178;-66
2021/12/18 06:53:02;;;;;;;24.93;10.43;;;0.90;99.90;;;;;;5052112;28;20299;-67
2021/12/18 06:55:28;;;;;;;24.80;10.87;;;0.90;99.90;;;;;;5048799;28;20440;-67
2021/12/18 06:57:54;;;;;;;28.47;11.47;;;0.90;99.90;;;;;;5052626;28;20456;-67
2021/12/18 07:00:21;;;;;;;27.50;11.57;;;1.00;99.90;;;;;;5053193;28;20519;-65
2021/12/18 07:02:47;;;;;;;28.93;11.00;;;1.00;99.90;;;;;;5056439;28;20916;-67
2021/12/18 07:05:14;;;;;;;30.27;9.07;;;1.00;99.90;;;;;;5054097;28;20463;-67
2021/12/18 07:07:40;;;;;;;31.47;9.87;;;1.00;99.90;;;;;;5054159;28;20738;-67
2021/12/18 07:10:09;;;;;;;40.50;12.23;;;1.00;99.90;;;;;;5055419;28;20428;-66
2021/12/18 07:12:34;;;;;;;24.97;10.50;;;1.00;99.90;;;;;;5048549;28;20421;-66
2021/12/18 07:15:02;;;;;;;26.10;9.60;;;0.90;99.90;;;;;;5048368;28;20456;-66
2021/12/18 07:17:27;;;;;;;17.83;8.43;;;0.90;99.90;;;;;;5049127;28;20179;-67
2021/12/18 07:19:53;;;;;;;43.93;11.83;;;0.90;99.90;;;;;;5049133;28;20947;-67
2021/12/18 07:22:18;;;;;;;40.17;11.33;;;0.90;99.90;;;;;;5043487;28;20193;-67
2021/12/18 07:24:44;;;;;;;30.57;10.63;;;0.90;99.90;;;;;;5047622;28;20666;-67
2021/12/18 07:27:10;;;;;;;24.17;10.70;;;1.00;99.90;;;;;;5048997;28;20673;-67
2021/12/18 07:29:36;;;;;;;31.03;11.30;;;0.90;99.90;;;;;;5050224;28;20251;-67
2021/12/18 07:32:01;;;;;;;27.00;12.20;;;1.00;99.90;;;;;;5047603;28;20181;-67
2021/12/18 07:34:27;;;;;;;25.20;8.80;;;1.00;99.90;;;;;;5048051;28;20196;-67
2021/12/18 07:36:53;;;;;;;24.30;9.90;;;0.90;99.90;;;;;;5047729;28;20192;-67
2021/12/18 07:39:18;;;;;;;25.40;10.07;;;1.00;99.90;;;;;;5051287;28;20185;-67
2021/12/18 07:41:44;;;;;;;24.20;10.17;;;1.00;99.90;;;;;;5055257;28;20541;-67
2021/12/18 07:44:10;;;;;;;27.43;10.10;;;1.00;99.90;;;;;;5051757;28;20181;-67
2021/12/18 07:46:37;;;;;;;30.67;11.63;;;1.00;99.90;;;;;;5049940;28;20203;-65
2021/12/18 07:49:04;;;;;;;21.43;9.80;;;1.00;99.90;;;;;;5048453;28;20173;-66
2021/12/18 07:51:30;;;;;;;24.23;11.40;;;1.00;99.90;;;;;;5055412;28;20430;-66
2021/12/18 07:53:56;;;;;;;25.73;9.77;;;1.00;99.90;;;;;;5052953;28;20420;-66
2021/12/18 07:56:22;;;;;;;30.10;11.50;;;1.00;99.90;;;;;;5060231;28;20188;-67
2021/12/18 07:58:48;;;;;;;29.07;10.90;;;1.00;99.90;;;;;;5057684;28;20189;-67
2021/12/18 08:01:13;;;;;;;23.07;9.77;;;1.00;99.90;;;;;;5057600;28;20182;-67
2021/12/18 08:03:40;;;;;;;24.80;10.27;;;1.00;99.90;;;;;;5051961;28;20257;-67
2021/12/18 08:06:06;;;;;;;23.40;10.97;;;0.90;99.90;;;;;;5052281;28;20642;-67
2021/12/18 08:08:32;;;;;;;23.63;8.80;;;1.00;99.90;;;;;;5053408;28;20482;-67
2021/12/18 08:10:58;;;;;;;22.93;10.07;;;1.00;99.90;;;;;;5053328;28;20526;-66
2021/12/18 08:13:24;;;;;;;19.23;10.33;;;1.00;99.90;;;;;;5054314;28;20181;-66
2021/12/18 08:15:50;;;;;;;31.83;10.60;;;1.00;99.90;;;;;;5053631;28;20439;-67
2021/12/18 08:18:15;;;;;;;22.33;9.80;;;1.00;99.90;;;;;;5053267;28;20189;-67
2021/12/18 08:20:41;;;;;;;18.47;8.40;;;1.00;99.90;;;;;;5054012;28;20440;-67
2021/12/18 08:23:07;;;;;;;30.80;9.47;;;1.00;99.90;;;;;;5054152;28;20189;-66
2021/12/18 08:25:33;;;;;;;15.73;7.23;;;1.10;99.90;;;;;;5050142;28;20209;-67
2021/12/18 08:28:00;;;;;;;25.10;9.17;;;1.10;99.90;;;;;;5055498;28;20893;-68
2021/12/18 08:30:28;;;;;;;24.63;9.33;;;1.10;99.90;;;;;;5055231;28;20420;-67
2021/12/18 08:32:54;;;;;;;21.10;11.13;;;1.10;99.90;;;;;;5055467;28;20412;-67
2021/12/18 08:35:19;;;;;;;20.70;8.63;;;1.10;99.90;;;;;;5062938;28;20459;-67
2021/12/18 08:37:45;;;;;;;21.70;11.23;;;1.10;99.90;;;;;;5053010;28;20880;-67
2021/12/18 08:40:12;;;;;;;16.87;9.10;;;1.10;99.90;;;;;;5057093;28;20551;-67
2021/12/18 08:42:38;;;;;;;36.53;11.80;;;1.10;99.90;;;;;;5052903;28;20435;-67
2021/12/18 08:45:05;;;;;;;24.07;10.60;;;1.10;99.90;;;;;;5057345;28;20455;-65
2021/12/18 08:47:31;;;;;;;27.00;8.40;;;1.20;99.90;;;;;;5057764;28;20729;-65
2021/12/18 08:49:57;;;;;;;23.63;10.13;;;1.20;99.90;;;;;;5063948;28;20526;-66
2021/12/18 08:52:23;;;;;;;20.90;8.90;;;1.10;99.90;;;;;;5063026;28;20196;-66
2021/12/18 08:54:49;;;;;;;20.30;8.53;;;1.00;99.90;;;;;;5062995;28;20419;-65
2021/12/18 08:57:15;;;;;;;27.33;10.10;;;1.00;99.90;;;;;;5057621;28;20181;-66
2021/12/18 08:59:41;;;;;;;22.13;10.00;;;1.10;99.90;;;;;;5058536;28;20774;-66
2021/12/18 09:02:08;;;;;;;24.20;10.73;;;1.20;99.90;;;;;;5052065;28;20190;-66
2021/12/18 09:04:35;;;;;;;26.63;9.07;;;1.20;99.90;;;;;;5052540;28;20459;-67
2021/12/18 09:07:01;;;;;;;24.03;9.33;;;1.30;99.90;;;;;;5052547;28;20462;-67
2021/12/18 09:09:27;;;;;;;16.40;8.00;;;1.30;99.90;;;;;;5051919;28;20446;-66
2021/12/18 09:11:53;;;;;;;15.93;5.90;;;1.40;99.90;;;;;;5054255;28;20883;-66
2021/12/18 09:14:18;;;;;;;15.33;7.33;;;1.30;99.90;;;;;;5054692;28;20193;-66
2021/12/18 09:16:44;;;;;;;22.13;8.53;;;1.30;99.90;;;;;;5053817;28;20194;-66
2021/12/18 09:19:10;;;;;;;14.80;6.03;;;1.40;99.90;;;;;;5054116;28;21232;-66
2021/12/18 09:21:36;;;;;;;16.13;7.20;;;1.40;99.90;;;;;;5052137;28;20194;-66
2021/12/18 09:24:02;;;;;;;15.93;7.07;;;1.40;99.90;;;;;;5053898;28;20181;-65
2021/12/18 09:26:28;;;;;;;16.10;7.50;;;1.40;99.90;;;;;;5051235;28;20177;-65
2021/12/18 09:28:53;;;;;;;17.90;7.83;;;1.40;99.90;;;;;;5052004;28;20419;-65
2021/12/18 09:31:19;;;;;;;15.37;7.27;;;1.50;99.90;;;;;;5051561;28;20182;-65
2021/12/18 09:33:45;;;;;;;25.80;8.33;;;1.50;99.90;;;;;;5051621;28;20560;-65
2021/12/18 09:36:11;;;;;;;16.70;6.60;;;1.50;99.90;;;;;;5055557;28;20241;-67
2021/12/18 09:38:36;;;;;;;13.60;6.17;;;1.50;99.90;;;;;;5054401;28;20177;-67
2021/12/18 09:41:03;;;;;;;20.87;7.23;;;1.60;99.90;;;;;;5056319;28;20889;-66
2021/12/18 09:43:29;;;;;;;18.50;8.30;;;1.60;99.90;;;;;;5046376;28;20714;-66
2021/12/18 09:46:02;;;;;;;24.70;7.50;;;1.60;99.90;;;;;;5050862;28;20601;-66
2021/12/18 09:48:28;;;;;;;14.73;6.90;;;1.60;99.90;;;;;;5057492;28;20419;-66
2021/12/18 09:50:56;;;;;;;22.90;8.37;;;1.60;99.90;;;;;;5058014;28;20751;-66
2021/12/18 09:53:22;;;;;;;13.40;6.20;;;1.70;99.90;;;;;;5055554;28;20420;-68
2021/12/18 09:55:48;;;;;;;18.20;8.07;;;1.60;99.90;;;;;;5057368;28;20503;-68
2021/12/18 09:58:14;;;;;;;22.50;6.93;;;1.60;99.90;;;;;;5051049;28;20941;-68
2021/12/18 10:00:39;;;;;;;17.10;7.57;;;1.60;99.90;;;;;;5052089;28;20178;-68
2021/12/18 10:03:07;;;;;;;13.20;7.10;;;1.50;99.90;;;;;;5052273;28;20200;-68
2021/12/18 10:05:34;;;;;;;15.50;6.13;;;1.60;99.90;;;;;;5051627;28;20216;-68
2021/12/18 10:08:19;;;;;;;18.63;6.60;;;1.40;99.90;;;;;;5044237;28;20424;-68
2021/12/18 10:11:08;;;;;;;20.37;8.60;;;1.50;99.90;;;;;;5050712;28;20431;-68
2021/12/18 10:13:53;;;;;;;16.10;6.67;;;1.50;99.90;;;;;;5053165;28;20447;-68
2021/12/18 10:16:20;;;;;;;16.30;7.47;;;1.50;99.90;;;;;;5043753;28;20424;-67
2021/12/18 10:18:45;;;;;;;18.40;8.20;;;1.60;99.90;;;;;;5041979;28;20539;-68
2021/12/18 10:21:18;;;;;;;21.23;8.33;;;1.60;99.90;;;;;;5045336;28;20526;-68
2021/12/18 10:23:46;;;;;;;18.73;9.07;;;1.60;99.90;;;;;;5050592;28;20181;-68
2021/12/18 10:26:30;;;;;;;20.50;8.70;;;1.60;99.90;;;;;;5049009;28;20657;-68
2021/12/18 10:28:56;;;;;;;20.63;8.90;;;1.70;99.90;;;;;;5047300;28;20422;-68
2021/12/18 10:31:38;;;;;;;14.93;7.13;;;1.70;99.90;;;;;;5054161;28;20488;-68
2021/12/18 10:34:26;;;;;;;17.97;7.97;;;1.80;99.90;;;;;;5052720;28;20759;-68
2021/12/18 10:37:13;;;;;;;14.23;6.50;;;1.80;99.90;;;;;;5053968;28;20424;-68
2021/12/18 10:39:53;;;;;;;25.53;7.00;;;1.80;99.90;;;;;;5053106;28;20434;-68
2021/12/18 10:42:30;;;;;;;19.60;7.87;;;1.90;99.90;;;;;;5049943;28;20403;-68
2021/12/18 10:44:57;;;;;;;17.23;7.03;;;1.90;99.90;;;;;;5055792;28;20459;-68
2021/12/18 10:47:24;;;;;;;16.70;7.57;;;1.90;99.90;;;;;;5056565;28;20412;-68
2021/12/18 10:49:49;;;;;;;13.07;5.37;;;2.00;99.90;;;;;;5049966;28;20416;-67
2021/12/18 10:52:15;;;;;;;11.60;6.10;;;2.00;99.90;;;;;;5050752;28;20849;-66
2021/12/18 10:54:41;;;;;;;16.70;6.33;;;2.00;99.90;;;;;;5050566;28;20661;-67
2021/12/18 10:57:20;;;;;;;16.00;6.83;;;2.00;99.90;;;;;;5049593;28;20181;-68
2021/12/18 10:59:48;;;;;;;8.87;5.13;;;2.00;99.90;;;;;;5050912;28;20416;-68
2021/12/18 11:02:15;;;;;;;16.40;6.07;;;1.90;99.90;;;;;;5050926;28;20416;-68
2021/12/18 11:04:43;;;;;;;19.07;7.90;;;1.90;99.90;;;;;;5050441;28;20892;-68
2021/12/18 11:07:22;;;;;;;21.97;6.70;;;1.90;99.90;;;;;;5051427;28;20500;-68
2021/12/18 11:10:11;;;;;;;13.40;5.67;;;1.90;99.90;;;;;;5051666;28;20853;-68
2021/12/18 11:15:19;;;;;;;15.90;6.00;;;1.90;99.90;;;;;;5054628;28;20446;-68
2021/12/18 11:17:46;;;;;;;12.70;6.63;;;2.00;99.90;;;;;;5050936;28;20428;-68
2021/12/18 11:20:12;;;;;;;14.20;6.13;;;2.10;99.90;;;;;;5053210;28;20451;-68
2021/12/18 11:22:39;;;;;;;9.70;4.73;;;2.10;99.90;;;;;;5049232;28;20505;-68
2021/12/18 11:25:10;;;;;;;17.40;6.47;;;2.20;99.90;;;;;;5056328;28;20551;-68
2021/12/18 11:27:36;;;;;;;24.60;8.17;;;2.20;99.90;;;;;;5051275;28;20428;-68
2021/12/18 11:30:10;;;;;;;14.07;6.77;;;2.10;99.90;;;;;;5057415;28;20430;-68
2021/12/18 11:32:42;;;;;;;13.73;6.73;;;2.30;99.90;;;;;;5056520;28;20767;-68
2021/12/18 11:35:20;;;;;;;14.67;7.30;;;2.40;99.90;;;;;;5049039;28;20423;-68
2021/12/18 11:37:50;;;;;;;13.50;6.57;;;2.30;99.90;;;;;;5055318;28;20415;-68
2021/12/18 11:40:21;;;;;;;14.53;7.70;;;2.30;99.90;;;;;;5046632;28;20432;-67
2021/12/18 11:42:47;;;;;;;15.10;6.77;;;2.20;99.90;;;;;;5049939;28;20424;-68
2021/12/18 11:45:12;;;;;;;11.10;5.20;;;2.30;99.90;;;;;;5056516;28;20523;-68
2021/12/18 11:47:41;;;;;;;20.27;6.23;;;2.30;99.90;;;;;;5050691;28;20190;-68
2021/12/18 11:50:29;;;;;;;12.77;5.97;;;2.30;99.90;;;;;;5044196;28;20276;-68
2021/12/18 11:53:05;;;;;;;12.27;5.83;;;2.40;99.90;;;;;;5049892;28;20420;-68
2021/12/18 11:55:36;;;;;;;16.07;7.07;;;2.40;99.90;;;;;;5049765;28;20415;-68
2021/12/18 11:58:11;;;;;;;12.17;4.97;;;2.30;99.90;;;;;;5050226;28;20470;-67
2021/12/18 12:00:39;;;;;;;15.70;5.50;;;2.30;99.90;;;;;;5048893;28;20462;-67
2021/12/18 12:03:07;;;;;;;12.47;5.90;;;2.20;99.90;;;;;;5049604;28;20422;-68
2021/12/18 12:05:35;;;;;;;10.93;5.60;;;2.20;99.90;;;;;;5057569;28;20476;-68
2021/12/18 12:08:25;;;;;;;14.97;6.37;;;2.30;99.90;;;;;;5053698;28;20474;-68
2021/12/18 12:11:16;;;;;;;13.10;5.20;;;2.30;99.90;;;;;;5052900;28;20427;-68
2021/12/18 12:13:51;;;;;;;12.77;5.77;;;2.40;99.90;;;;;;5053167;28;20418;-68
2021/12/18 12:16:16;;;;;;;7.17;4.10;;;2.40;99.90;;;;;;5053329;28;21084;-68
2021/12/18 12:19:05;;;;;;;14.03;6.40;;;2.40;99.90;;;;;;5053233;28;20492;-68
2021/12/18 12:21:38;;;;;;;11.00;5.87;;;2.30;99.90;;;;;;5051250;28;20194;-68
2021/12/18 12:24:05;;;;;;;10.17;5.53;;;2.30;99.90;;;;;;5030424;28;20822;-68
2021/12/18 12:26:30;;;;;;;14.03;5.53;;;2.30;99.90;;;;;;5061182;28;20423;-68
2021/12/18 12:28:56;;;;;;;11.23;5.57;;;2.10;99.90;;;;;;5052326;28;20455;-68
2021/12/18 12:31:22;;;;;;;9.97;4.60;;;2.10;99.90;;;;;;5048869;28;20189;-67
2021/12/18 12:33:49;;;;;;;12.47;5.67;;;2.20;99.90;;;;;;5048860;28;20300;-68
2021/12/18 12:36:27;;;;;;;12.90;4.57;;;2.30;99.90;;;;;;5048611;28;20451;-68
2021/12/18 12:38:57;;;;;;;13.43;5.27;;;2.40;99.90;;;;;;5049015;28;20423;-68
2021/12/18 12:41:26;;;;;;;11.63;5.53;;;2.50;99.90;;;;;;5051629;28;20921;-68
2021/12/18 12:43:59;;;;;;;14.63;5.03;;;2.60;99.90;;;;;;5052424;28;20419;-67
2021/12/18 12:46:25;;;;;;;10.80;5.47;;;2.60;99.90;;;;;;5052033;28;20463;-68
2021/12/18 12:49:00;;;;;;;16.37;6.87;;;2.60;99.90;;;;;;5052076;28;20427;-68
2021/12/18 12:51:47;;;;;;;12.20;5.47;;;2.60;99.90;;;;;;5054724;28;20478;-68
2021/12/18 12:54:45;;;;;;;13.27;5.63;;;2.70;99.90;;;;;;5057836;28;20464;-67
2021/12/18 12:57:35;;;;;;;14.90;6.73;;;2.70;99.90;;;;;;5059252;28;20973;-67
2021/12/18 13:00:06;;;;;;;19.10;7.03;;;2.70;99.90;;;;;;5055686;28;21235;-68
2021/12/18 13:02:39;;;;;;;14.67;5.80;;;2.80;99.90;;;;;;5055974;28;20496;-68
2021/12/18 13:05:04;;;;;;;11.97;6.40;;;2.90;99.90;;;;;;5039432;28;20515;-67
2021/12/18 13:07:30;;;;;;;12.10;5.67;;;2.90;99.90;;;;;;5057063;28;20433;-67
2021/12/18 13:09:56;;;;;;;10.90;5.10;;;2.90;99.90;;;;;;5046196;28;20937;-68
2021/12/18 13:12:22;;;;;;;8.53;4.83;;;2.90;99.90;;;;;;5057543;28;20192;-68
2021/12/18 13:14:47;;;;;;;14.30;6.20;;;3.00;99.90;;;;;;5053497;28;20661;-67
2021/12/18 13:17:20;;;;;;;11.40;5.70;;;2.90;99.90;;;;;;5053026;28;20193;-67
2021/12/18 13:20:00;;;;;;;14.73;5.40;;;2.90;99.90;;;;;;5052282;28;20704;-68
2021/12/18 13:22:31;;;;;;;11.93;5.57;;;2.80;99.90;;;;;;5052618;28;20424;-68
2021/12/18 13:25:05;;;;;;;11.77;5.30;;;2.60;99.90;;;;;;5052721;28;20464;-68
2021/12/18 13:27:31;;;;;;;13.27;6.40;;;2.60;99.90;;;;;;5052838;28;20416;-68
2021/12/18 13:30:16;;;;;;;16.40;7.03;;;2.60;99.90;;;;;;5052792;28;20642;-69
2021/12/18 13:33:02;;;;;;;11.33;5.73;;;2.60;99.90;;;;;;5053678;28;20416;-69